sensor_id;sensor_type;location;lat;lon;timestamp;P1;durP1;ratioP1;P2;durP2;ratioP2
19575;SDS011;41589;51.196;7.074;2023-04-15T00:00:50;1.43;;;1.33;;
19575;SDS011;41589;51.196;7.074;2023-04-15T00:05:51;1.50;;;1.40;;
19575;SDS011;41589;51.196;7.074;2023-04-15T00:10:51;1.40;;;1.30;;
19575;SDS011;41589;51.196;7.074;2023-04-15T00:15:52;1.30;;;1.30;;
19575;SDS011;41589;51.196;7.074;2023-04-15T00:20:52;1.50;;;1.40;;
19575;SDS011;41589;51.196;7.074;2023-04-15T00:25:53;1.77;;;1.40;;
19575;SDS011;41589;51.196;7.074;2023-04-15T00:30:54;1.33;;;1.33;;
19575;SDS011;41589;51.196;7.074;2023-04-15T00:35:54;1.87;;;1.77;;
19575;SDS011;41589;51.196;7.074;2023-04-15T00:40:54;2.40;;;1.20;;
19575;SDS011;41589;51.196;7.074;2023-04-15T00:45:55;1.30;;;1.30;;
19575;SDS011;41589;51.196;7.074;2023-04-15T00:50:58;1.30;;;1.30;;
19575;SDS011;41589;51.196;7.074;2023-04-15T00:55:58;1.40;;;1.30;;
19575;SDS011;41589;51.196;7.074;2023-04-15T01:00:58;1.50;;;1.40;;
19575;SDS011;41589;51.196;7.074;2023-04-15T01:05:59;1.37;;;1.33;;
19575;SDS011;41589;51.196;7.074;2023-04-15T01:11:00;1.23;;;1.23;;
19575;SDS011;41589;51.196;7.074;2023-04-15T01:16:02;1.50;;;1.40;;
19575;SDS011;41589;51.196;7.074;2023-04-15T01:21:03;1.77;;;1.67;;
19575;SDS011;41589;51.196;7.074;2023-04-15T01:26:05;1.20;;;1.20;;
19575;SDS011;41589;51.196;7.074;2023-04-15T01:31:09;1.30;;;1.30;;
19575;SDS011;41589;51.196;7.074;2023-04-15T01:36:11;1.40;;;1.30;;
19575;SDS011;41589;51.196;7.074;2023-04-15T01:41:12;1.30;;;1.30;;
19575;SDS011;41589;51.196;7.074;2023-04-15T01:46:13;1.30;;;1.30;;
19575;SDS011;41589;51.196;7.074;2023-04-15T01:51:13;1.70;;;1.60;;
19575;SDS011;41589;51.196;7.074;2023-04-15T01:56:15;1.93;;;1.83;;
19575;SDS011;41589;51.196;7.074;2023-04-15T02:01:17;1.57;;;1.47;;
19575;SDS011;41589;51.196;7.074;2023-04-15T02:06:21;1.40;;;1.30;;
19575;SDS011;41589;51.196;7.074;2023-04-15T02:11:21;1.57;;;1.47;;
19575;SDS011;41589;51.196;7.074;2023-04-15T02:16:22;1.27;;;1.27;;
19575;SDS011;41589;51.196;7.074;2023-04-15T02:21:22;1.23;;;1.23;;
19575;SDS011;41589;51.196;7.074;2023-04-15T02:26:22;1.40;;;1.30;;
19575;SDS011;41589;51.196;7.074;2023-04-15T02:31:24;1.20;;;1.20;;
19575;SDS011;41589;51.196;7.074;2023-04-15T02:36:25;2.10;;;1.50;;
19575;SDS011;41589;51.196;7.074;2023-04-15T02:41:26;1.40;;;1.40;;
19575;SDS011;41589;51.196;7.074;2023-04-15T02:46:27;1.43;;;1.33;;
19575;SDS011;41589;51.196;7.074;2023-04-15T02:51:28;1.50;;;1.50;;
19575;SDS011;41589;51.196;7.074;2023-04-15T02:56:30;1.30;;;1.30;;
19575;SDS011;41589;51.196;7.074;2023-04-15T03:01:30;1.60;;;1.50;;
19575;SDS011;41589;51.196;7.074;2023-04-15T03:06:31;1.57;;;1.47;;
19575;SDS011;41589;51.196;7.074;2023-04-15T03:11:31;1.30;;;1.30;;
19575;SDS011;41589;51.196;7.074;2023-04-15T03:16:32;1.83;;;1.40;;
19575;SDS011;41589;51.196;7.074;2023-04-15T03:21:33;1.73;;;1.63;;
19575;SDS011;41589;51.196;7.074;2023-04-15T03:26:33;1.70;;;1.60;;
19575;SDS011;41589;51.196;7.074;2023-04-15T03:31:43;1.43;;;1.30;;
19575;SDS011;41589;51.196;7.074;2023-04-15T03:36:45;1.27;;;1.27;;
19575;SDS011;41589;51.196;7.074;2023-04-15T03:41:45;1.10;;;1.10;;
19575;SDS011;41589;51.196;7.074;2023-04-15T03:46:46;1.50;;;1.40;;
19575;SDS011;41589;51.196;7.074;2023-04-15T03:51:46;1.20;;;1.20;;
19575;SDS011;41589;51.196;7.074;2023-04-15T03:56:46;1.30;;;1.20;;
19575;SDS011;41589;51.196;7.074;2023-04-15T04:01:47;1.30;;;1.30;;
19575;SDS011;41589;51.196;7.074;2023-04-15T04:06:47;1.20;;;1.20;;
19575;SDS011;41589;51.196;7.074;2023-04-15T04:11:47;1.27;;;1.20;;
19575;SDS011;41589;51.196;7.074;2023-04-15T04:16:48;1.30;;;1.30;;
19575;SDS011;41589;51.196;7.074;2023-04-15T04:21:48;1.20;;;1.20;;
19575;SDS011;41589;51.196;7.074;2023-04-15T04:26:48;1.47;;;1.37;;
19575;SDS011;41589;51.196;7.074;2023-04-15T04:31:49;1.90;;;1.80;;
19575;SDS011;41589;51.196;7.074;2023-04-15T04:36:49;1.80;;;1.70;;
19575;SDS011;41589;51.196;7.074;2023-04-15T04:41:49;1.70;;;1.60;;
19575;SDS011;41589;51.196;7.074;2023-04-15T04:46:51;1.90;;;1.80;;
19575;SDS011;41589;51.196;7.074;2023-04-15T04:51:51;1.80;;;1.70;;
19575;SDS011;41589;51.196;7.074;2023-04-15T04:56:52;1.97;;;1.87;;
19575;SDS011;41589;51.196;7.074;2023-04-15T05:01:52;2.33;;;2.13;;
19575;SDS011;41589;51.196;7.074;2023-04-15T05:06:53;1.90;;;1.80;;
19575;SDS011;41589;51.196;7.074;2023-04-15T05:11:53;1.90;;;1.80;;
19575;SDS011;41589;51.196;7.074;2023-04-15T05:16:53;1.87;;;1.77;;
19575;SDS011;41589;51.196;7.074;2023-04-15T05:21:54;2.07;;;1.97;;
19575;SDS011;41589;51.196;7.074;2023-04-15T05:26:54;2.00;;;1.90;;
19575;SDS011;41589;51.196;7.074;2023-04-15T05:31:55;2.13;;;2.03;;
19575;SDS011;41589;51.196;7.074;2023-04-15T05:36:56;2.40;;;2.30;;
19575;SDS011;41589;51.196;7.074;2023-04-15T05:41:56;2.20;;;2.10;;
19575;SDS011;41589;51.196;7.074;2023-04-15T05:46:56;2.30;;;2.20;;
19575;SDS011;41589;51.196;7.074;2023-04-15T05:51:57;2.10;;;2.00;;
19575;SDS011;41589;51.196;7.074;2023-04-15T05:56:57;2.20;;;2.10;;
19575;SDS011;41589;51.196;7.074;2023-04-15T06:01:58;2.60;;;2.40;;
19575;SDS011;41589;51.196;7.074;2023-04-15T06:06:58;2.50;;;2.30;;
19575;SDS011;41589;51.196;7.074;2023-04-15T06:11:58;2.40;;;2.30;;
19575;SDS011;41589;51.196;7.074;2023-04-15T06:17:00;2.50;;;2.40;;
19575;SDS011;41589;51.196;7.074;2023-04-15T06:22:01;2.40;;;2.30;;
19575;SDS011;41589;51.196;7.074;2023-04-15T06:27:06;3.37;;;2.40;;
19575;SDS011;41589;51.196;7.074;2023-04-15T06:32:07;2.27;;;2.17;;
19575;SDS011;41589;51.196;7.074;2023-04-15T06:37:11;1.70;;;1.70;;
19575;SDS011;41589;51.196;7.074;2023-04-15T06:42:22;2.00;;;1.90;;
19575;SDS011;41589;51.196;7.074;2023-04-15T06:47:50;1.40;;;1.30;;
19575;SDS011;41589;51.196;7.074;2023-04-15T06:52:54;1.80;;;1.70;;
19575;SDS011;41589;51.196;7.074;2023-04-15T06:57:58;1.70;;;1.60;;
19575;SDS011;41589;51.196;7.074;2023-04-15T07:03:04;1.70;;;1.60;;
19575;SDS011;41589;51.196;7.074;2023-04-15T07:08:16;1.90;;;1.70;;
19575;SDS011;41589;51.196;7.074;2023-04-15T07:13:16;1.90;;;1.80;;
19575;SDS011;41589;51.196;7.074;2023-04-15T07:18:43;2.03;;;1.93;;
19575;SDS011;41589;51.196;7.074;2023-04-15T07:23:46;2.10;;;2.00;;
19575;SDS011;41589;51.196;7.074;2023-04-15T07:28:53;2.20;;;2.10;;
19575;SDS011;41589;51.196;7.074;2023-04-15T07:34:05;2.47;;;2.33;;
19575;SDS011;41589;51.196;7.074;2023-04-15T07:39:20;2.40;;;2.30;;
19575;SDS011;41589;51.196;7.074;2023-04-15T07:44:29;2.10;;;2.00;;
19575;SDS011;41589;51.196;7.074;2023-04-15T07:49:41;2.20;;;2.10;;
19575;SDS011;41589;51.196;7.074;2023-04-15T07:54:44;1.93;;;1.83;;
19575;SDS011;41589;51.196;7.074;2023-04-15T08:05:19;1.50;;;1.50;;
19575;SDS011;41589;51.196;7.074;2023-04-15T08:10:28;1.70;;;1.60;;
19575;SDS011;41589;51.196;7.074;2023-04-15T08:15:32;1.30;;;1.30;;
19575;SDS011;41589;51.196;7.074;2023-04-15T08:20:36;1.60;;;1.50;;
19575;SDS011;41589;51.196;7.074;2023-04-15T08:25:56;1.50;;;1.50;;
19575;SDS011;41589;51.196;7.074;2023-04-15T08:31:17;1.60;;;1.50;;
19575;SDS011;41589;51.196;7.074;2023-04-15T08:36:21;1.67;;;1.63;;
19575;SDS011;41589;51.196;7.074;2023-04-15T08:41:22;1.40;;;1.30;;
19575;SDS011;41589;51.196;7.074;2023-04-15T08:46:24;1.20;;;1.20;;
19575;SDS011;41589;51.196;7.074;2023-04-15T08:51:28;1.23;;;1.23;;
19575;SDS011;41589;51.196;7.074;2023-04-15T08:56:42;1.47;;;1.37;;
19575;SDS011;41589;51.196;7.074;2023-04-15T09:01:44;1.40;;;1.40;;
19575;SDS011;41589;51.196;7.074;2023-04-15T09:06:45;1.10;;;1.10;;
19575;SDS011;41589;51.196;7.074;2023-04-15T09:11:46;1.47;;;1.47;;
19575;SDS011;41589;51.196;7.074;2023-04-15T09:16:58;1.37;;;1.37;;
19575;SDS011;41589;51.196;7.074;2023-04-15T09:21:59;1.67;;;1.67;;
19575;SDS011;41589;51.196;7.074;2023-04-15T09:27:01;1.70;;;1.60;;
19575;SDS011;41589;51.196;7.074;2023-04-15T09:32:09;1.50;;;1.40;;
19575;SDS011;41589;51.196;7.074;2023-04-15T09:37:14;1.30;;;1.30;;
19575;SDS011;41589;51.196;7.074;2023-04-15T09:42:19;1.43;;;1.33;;
19575;SDS011;41589;51.196;7.074;2023-04-15T09:47:29;1.40;;;1.40;;
19575;SDS011;41589;51.196;7.074;2023-04-15T09:52:39;1.10;;;1.10;;
19575;SDS011;41589;51.196;7.074;2023-04-15T09:57:42;1.30;;;1.30;;
19575;SDS011;41589;51.196;7.074;2023-04-15T10:02:46;1.30;;;1.30;;
19575;SDS011;41589;51.196;7.074;2023-04-15T10:07:47;1.10;;;1.10;;
19575;SDS011;41589;51.196;7.074;2023-04-15T10:12:49;1.40;;;1.40;;
19575;SDS011;41589;51.196;7.074;2023-04-15T10:17:54;1.00;;;1.00;;
19575;SDS011;41589;51.196;7.074;2023-04-15T10:23:02;1.10;;;1.10;;
19575;SDS011;41589;51.196;7.074;2023-04-15T10:28:05;1.30;;;1.30;;
19575;SDS011;41589;51.196;7.074;2023-04-15T10:33:14;1.33;;;1.33;;
19575;SDS011;41589;51.196;7.074;2023-04-15T10:38:38;1.30;;;1.30;;
19575;SDS011;41589;51.196;7.074;2023-04-15T10:43:55;1.40;;;1.40;;
19575;SDS011;41589;51.196;7.074;2023-04-15T10:49:00;1.37;;;1.37;;
19575;SDS011;41589;51.196;7.074;2023-04-15T10:59:25;1.20;;;1.20;;
19575;SDS011;41589;51.196;7.074;2023-04-15T11:09:56;1.40;;;1.40;;
19575;SDS011;41589;51.196;7.074;2023-04-15T11:14:57;1.60;;;1.50;;
19575;SDS011;41589;51.196;7.074;2023-04-15T11:20:00;1.40;;;1.40;;
19575;SDS011;41589;51.196;7.074;2023-04-15T11:25:06;1.50;;;1.50;;
19575;SDS011;41589;51.196;7.074;2023-04-15T11:30:19;1.30;;;1.30;;
19575;SDS011;41589;51.196;7.074;2023-04-15T11:35:22;1.20;;;1.20;;
19575;SDS011;41589;51.196;7.074;2023-04-15T11:40:23;1.40;;;1.40;;
19575;SDS011;41589;51.196;7.074;2023-04-15T11:45:31;1.50;;;1.50;;
19575;SDS011;41589;51.196;7.074;2023-04-15T11:50:32;1.27;;;1.27;;
19575;SDS011;41589;51.196;7.074;2023-04-15T11:55:42;1.20;;;1.20;;
19575;SDS011;41589;51.196;7.074;2023-04-15T12:00:52;1.40;;;1.30;;
19575;SDS011;41589;51.196;7.074;2023-04-15T12:11:18;1.30;;;1.30;;
19575;SDS011;41589;51.196;7.074;2023-04-15T12:16:26;1.50;;;1.50;;
19575;SDS011;41589;51.196;7.074;2023-04-15T12:21:33;1.77;;;1.70;;
19575;SDS011;41589;51.196;7.074;2023-04-15T12:26:36;1.60;;;1.60;;
19575;SDS011;41589;51.196;7.074;2023-04-15T12:31:54;1.60;;;1.60;;
19575;SDS011;41589;51.196;7.074;2023-04-15T12:36:56;1.30;;;1.30;;
19575;SDS011;41589;51.196;7.074;2023-04-15T12:41:57;1.80;;;1.70;;
19575;SDS011;41589;51.196;7.074;2023-04-15T12:47:02;1.30;;;1.30;;
19575;SDS011;41589;51.196;7.074;2023-04-15T12:52:03;1.93;;;1.83;;
19575;SDS011;41589;51.196;7.074;2023-04-15T12:57:04;1.97;;;1.87;;
19575;SDS011;41589;51.196;7.074;2023-04-15T13:02:05;2.10;;;2.00;;
19575;SDS011;41589;51.196;7.074;2023-04-15T13:07:05;2.10;;;2.00;;
19575;SDS011;41589;51.196;7.074;2023-04-15T13:12:05;2.20;;;1.90;;
19575;SDS011;41589;51.196;7.074;2023-04-15T13:17:06;1.50;;;1.50;;
19575;SDS011;41589;51.196;7.074;2023-04-15T13:22:09;1.87;;;1.77;;
19575;SDS011;41589;51.196;7.074;2023-04-15T13:27:10;1.80;;;1.80;;
19575;SDS011;41589;51.196;7.074;2023-04-15T13:32:10;2.40;;;2.30;;
19575;SDS011;41589;51.196;7.074;2023-04-15T13:37:11;1.97;;;1.87;;
19575;SDS011;41589;51.196;7.074;2023-04-15T13:42:11;1.73;;;1.63;;
19575;SDS011;41589;51.196;7.074;2023-04-15T13:47:12;1.80;;;1.80;;
19575;SDS011;41589;51.196;7.074;2023-04-15T13:52:13;2.97;;;2.47;;
19575;SDS011;41589;51.196;7.074;2023-04-15T13:57:14;2.00;;;1.90;;
19575;SDS011;41589;51.196;7.074;2023-04-15T14:02:14;1.97;;;1.87;;
19575;SDS011;41589;51.196;7.074;2023-04-15T14:07:15;1.73;;;1.70;;
19575;SDS011;41589;51.196;7.074;2023-04-15T14:12:15;1.63;;;1.50;;
19575;SDS011;41589;51.196;7.074;2023-04-15T14:17:19;1.70;;;1.70;;
19575;SDS011;41589;51.196;7.074;2023-04-15T14:22:20;1.40;;;1.40;;
19575;SDS011;41589;51.196;7.074;2023-04-15T14:27:20;1.70;;;1.60;;
19575;SDS011;41589;51.196;7.074;2023-04-15T14:32:21;1.93;;;1.80;;
19575;SDS011;41589;51.196;7.074;2023-04-15T14:37:21;1.80;;;1.70;;
19575;SDS011;41589;51.196;7.074;2023-04-15T14:42:22;5.93;;;1.90;;
19575;SDS011;41589;51.196;7.074;2023-04-15T14:47:23;1.47;;;1.47;;
19575;SDS011;41589;51.196;7.074;2023-04-15T14:52:23;1.60;;;1.60;;
19575;SDS011;41589;51.196;7.074;2023-04-15T14:57:24;1.23;;;1.23;;
19575;SDS011;41589;51.196;7.074;2023-04-15T15:02:24;1.30;;;1.30;;
19575;SDS011;41589;51.196;7.074;2023-04-15T15:07:25;1.17;;;1.17;;
19575;SDS011;41589;51.196;7.074;2023-04-15T15:12:26;1.20;;;1.20;;
19575;SDS011;41589;51.196;7.074;2023-04-15T15:17:26;1.20;;;1.20;;
19575;SDS011;41589;51.196;7.074;2023-04-15T15:22:27;1.33;;;1.30;;
19575;SDS011;41589;51.196;7.074;2023-04-15T15:27:27;1.40;;;1.30;;
19575;SDS011;41589;51.196;7.074;2023-04-15T15:32:28;1.60;;;1.50;;
19575;SDS011;41589;51.196;7.074;2023-04-15T15:37:29;1.20;;;1.20;;
19575;SDS011;41589;51.196;7.074;2023-04-15T15:42:32;1.30;;;1.30;;
19575;SDS011;41589;51.196;7.074;2023-04-15T15:47:36;1.17;;;1.17;;
19575;SDS011;41589;51.196;7.074;2023-04-15T15:52:37;1.10;;;1.10;;
19575;SDS011;41589;51.196;7.074;2023-04-15T15:57:37;1.20;;;1.20;;
19575;SDS011;41589;51.196;7.074;2023-04-15T16:02:41;1.33;;;1.30;;
19575;SDS011;41589;51.196;7.074;2023-04-15T16:07:42;1.30;;;1.30;;
19575;SDS011;41589;51.196;7.074;2023-04-15T16:12:45;1.20;;;1.20;;
19575;SDS011;41589;51.196;7.074;2023-04-15T16:17:45;1.00;;;1.00;;
19575;SDS011;41589;51.196;7.074;2023-04-15T16:22:49;1.13;;;1.13;;
19575;SDS011;41589;51.196;7.074;2023-04-15T16:27:53;1.03;;;1.03;;
19575;SDS011;41589;51.196;7.074;2023-04-15T16:32:57;1.30;;;1.30;;
19575;SDS011;41589;51.196;7.074;2023-04-15T16:37:58;1.20;;;1.20;;
19575;SDS011;41589;51.196;7.074;2023-04-15T16:42:58;1.87;;;1.43;;
19575;SDS011;41589;51.196;7.074;2023-04-15T16:47:59;1.10;;;1.10;;
19575;SDS011;41589;51.196;7.074;2023-04-15T16:52:59;1.27;;;1.27;;
19575;SDS011;41589;51.196;7.074;2023-04-15T16:58:12;1.30;;;1.20;;
19575;SDS011;41589;51.196;7.074;2023-04-15T17:03:18;1.20;;;1.20;;
19575;SDS011;41589;51.196;7.074;2023-04-15T17:08:22;1.10;;;1.10;;
19575;SDS011;41589;51.196;7.074;2023-04-15T17:13:24;1.10;;;1.10;;
19575;SDS011;41589;51.196;7.074;2023-04-15T17:18:27;1.30;;;1.30;;
19575;SDS011;41589;51.196;7.074;2023-04-15T17:23:29;1.47;;;1.47;;
19575;SDS011;41589;51.196;7.074;2023-04-15T17:28:32;1.50;;;1.40;;
19575;SDS011;41589;51.196;7.074;2023-04-15T17:33:33;1.60;;;1.50;;
19575;SDS011;41589;51.196;7.074;2023-04-15T17:38:39;1.53;;;1.40;;
19575;SDS011;41589;51.196;7.074;2023-04-15T17:43:45;1.23;;;1.23;;
19575;SDS011;41589;51.196;7.074;2023-04-15T17:48:46;1.30;;;1.30;;
19575;SDS011;41589;51.196;7.074;2023-04-15T17:53:47;1.40;;;1.33;;
19575;SDS011;41589;51.196;7.074;2023-04-15T17:58:47;1.43;;;1.33;;
19575;SDS011;41589;51.196;7.074;2023-04-15T18:03:47;1.40;;;1.40;;
19575;SDS011;41589;51.196;7.074;2023-04-15T18:08:48;1.30;;;1.30;;
19575;SDS011;41589;51.196;7.074;2023-04-15T18:13:48;1.40;;;1.40;;
19575;SDS011;41589;51.196;7.074;2023-04-15T18:18:48;1.33;;;1.30;;
19575;SDS011;41589;51.196;7.074;2023-04-15T18:23:48;1.53;;;1.43;;
19575;SDS011;41589;51.196;7.074;2023-04-15T18:28:49;1.20;;;1.20;;
19575;SDS011;41589;51.196;7.074;2023-04-15T18:33:49;1.23;;;1.23;;
19575;SDS011;41589;51.196;7.074;2023-04-15T18:38:50;1.30;;;1.20;;
19575;SDS011;41589;51.196;7.074;2023-04-15T18:43:50;1.60;;;1.50;;
19575;SDS011;41589;51.196;7.074;2023-04-15T18:48:51;1.30;;;1.30;;
19575;SDS011;41589;51.196;7.074;2023-04-15T18:53:51;1.50;;;1.50;;
19575;SDS011;41589;51.196;7.074;2023-04-15T18:58:51;1.40;;;1.40;;
19575;SDS011;41589;51.196;7.074;2023-04-15T19:03:52;1.70;;;1.60;;
19575;SDS011;41589;51.196;7.074;2023-04-15T19:08:52;1.57;;;1.47;;
19575;SDS011;41589;51.196;7.074;2023-04-15T19:13:52;1.90;;;1.70;;
19575;SDS011;41589;51.196;7.074;2023-04-15T19:18:53;1.40;;;1.30;;
19575;SDS011;41589;51.196;7.074;2023-04-15T19:23:54;1.07;;;1.07;;
19575;SDS011;41589;51.196;7.074;2023-04-15T19:28:55;1.50;;;1.40;;
19575;SDS011;41589;51.196;7.074;2023-04-15T19:33:57;1.30;;;1.20;;
19575;SDS011;41589;51.196;7.074;2023-04-15T19:38:58;1.20;;;1.20;;
19575;SDS011;41589;51.196;7.074;2023-04-15T19:44:00;1.37;;;1.30;;
19575;SDS011;41589;51.196;7.074;2023-04-15T19:49:02;1.20;;;1.20;;
19575;SDS011;41589;51.196;7.074;2023-04-15T19:54:02;1.20;;;1.20;;
19575;SDS011;41589;51.196;7.074;2023-04-15T19:59:02;1.20;;;1.20;;
19575;SDS011;41589;51.196;7.074;2023-04-15T20:04:03;0.90;;;0.90;;
19575;SDS011;41589;51.196;7.074;2023-04-15T20:09:03;1.23;;;1.20;;
19575;SDS011;41589;51.196;7.074;2023-04-15T20:14:04;1.00;;;1.00;;
19575;SDS011;41589;51.196;7.074;2023-04-15T20:19:04;1.30;;;1.20;;
19575;SDS011;41589;51.196;7.074;2023-04-15T20:24:08;1.00;;;1.00;;
19575;SDS011;41589;51.196;7.074;2023-04-15T20:29:09;1.17;;;1.17;;
19575;SDS011;41589;51.196;7.074;2023-04-15T20:34:09;1.07;;;1.07;;
19575;SDS011;41589;51.196;7.074;2023-04-15T20:39:10;1.50;;;1.40;;
19575;SDS011;41589;51.196;7.074;2023-04-15T20:44:10;1.50;;;1.40;;
19575;SDS011;41589;51.196;7.074;2023-04-15T20:49:10;1.40;;;1.30;;
19575;SDS011;41589;51.196;7.074;2023-04-15T20:54:11;1.10;;;1.10;;
19575;SDS011;41589;51.196;7.074;2023-04-15T20:59:11;1.50;;;1.40;;
19575;SDS011;41589;51.196;7.074;2023-04-15T21:04:11;1.60;;;1.50;;
19575;SDS011;41589;51.196;7.074;2023-04-15T21:09:12;1.30;;;1.30;;
19575;SDS011;41589;51.196;7.074;2023-04-15T21:14:13;1.40;;;1.40;;
19575;SDS011;41589;51.196;7.074;2023-04-15T21:19:15;1.30;;;1.30;;
19575;SDS011;41589;51.196;7.074;2023-04-15T21:24:18;1.70;;;1.60;;
19575;SDS011;41589;51.196;7.074;2023-04-15T21:29:19;3.40;;;1.90;;
19575;SDS011;41589;51.196;7.074;2023-04-15T21:34:19;1.97;;;1.87;;
19575;SDS011;41589;51.196;7.074;2023-04-15T21:39:19;2.60;;;2.40;;
19575;SDS011;41589;51.196;7.074;2023-04-15T21:44:20;2.40;;;2.20;;
19575;SDS011;41589;51.196;7.074;2023-04-15T21:49:21;2.50;;;2.00;;
19575;SDS011;41589;51.196;7.074;2023-04-15T21:54:21;2.43;;;2.23;;
19575;SDS011;41589;51.196;7.074;2023-04-15T21:59:21;3.37;;;2.13;;
19575;SDS011;41589;51.196;7.074;2023-04-15T22:04:22;2.80;;;2.27;;
19575;SDS011;41589;51.196;7.074;2023-04-15T22:09:22;4.83;;;2.70;;
19575;SDS011;41589;51.196;7.074;2023-04-15T22:14:23;7.60;;;2.70;;
19575;SDS011;41589;51.196;7.074;2023-04-15T22:19:25;8.23;;;2.90;;
19575;SDS011;41589;51.196;7.074;2023-04-15T22:24:25;8.07;;;2.80;;
19575;SDS011;41589;51.196;7.074;2023-04-15T22:29:26;11.33;;;3.77;;
19575;SDS011;41589;51.196;7.074;2023-04-15T22:34:26;4.20;;;2.40;;
19575;SDS011;41589;51.196;7.074;2023-04-15T22:39:27;8.73;;;3.27;;
19575;SDS011;41589;51.196;7.074;2023-04-15T22:44:27;6.60;;;2.93;;
19575;SDS011;41589;51.196;7.074;2023-04-15T22:49:28;8.47;;;2.77;;
19575;SDS011;41589;51.196;7.074;2023-04-15T22:54:28;5.00;;;2.60;;
19575;SDS011;41589;51.196;7.074;2023-04-15T22:59:28;3.93;;;2.97;;
19575;SDS011;41589;51.196;7.074;2023-04-15T23:04:29;7.03;;;3.30;;
19575;SDS011;41589;51.196;7.074;2023-04-15T23:09:30;5.50;;;3.60;;
19575;SDS011;41589;51.196;7.074;2023-04-15T23:14:30;3.67;;;3.00;;
19575;SDS011;41589;51.196;7.074;2023-04-15T23:19:30;3.87;;;2.80;;
19575;SDS011;41589;51.196;7.074;2023-04-15T23:24:31;6.87;;;3.40;;
19575;SDS011;41589;51.196;7.074;2023-04-15T23:29:31;3.00;;;2.77;;
19575;SDS011;41589;51.196;7.074;2023-04-15T23:34:31;2.97;;;2.77;;
19575;SDS011;41589;51.196;7.074;2023-04-15T23:39:32;16.40;;;4.50;;
19575;SDS011;41589;51.196;7.074;2023-04-15T23:44:32;18.23;;;4.47;;
19575;SDS011;41589;51.196;7.074;2023-04-15T23:49:32;6.03;;;3.07;;
19575;SDS011;41589;51.196;7.074;2023-04-15T23:59:38;17.00;;;4.43;;
